ADDS METAR Data INFO
IDs: Format: Raw Decoded Include TAF

Data at: 0015 UTC 17 Dec 2017

METAR for:KFPK (Charotte/Beach Fld, MI, US)
Text:KFPK 162355Z AUTO 06004KT 10SM OVC085 M03/M06 A3006 RMK AO2 T10331063 11010 21033
Temperature: -3.3°C ( 26°F)
Dewpoint: -6.3°C ( 21°F) [RH = 80%]
Pressure (altimeter):30.06 inches Hg (1018.0 mb)
Winds:from the ENE (60 degrees) at 5 MPH (4 knots; 2.1 m/s)
Visibility:10 or more sm (16+ km)
Ceiling:8500 feet AGL
Clouds: overcast cloud deck at 8500 feet AGL
QC Flag:automated observation with no human augmentation

TAF for:KFPK (Charotte/Beach Fld, MI, US)
Text:No data found

METAR for:KLAN (Lansing/Capital City, MI, US)
Text:KLAN 162353Z 08008KT 10SM FEW027 OVC090 M04/M07 A3009 RMK AO2 SLP201 T10441072 11028 21044 51024
Temperature: -4.4°C ( 24°F)
Dewpoint: -7.2°C ( 19°F) [RH = 81%]
Pressure (altimeter):30.09 inches Hg (1019.0 mb) [Sea level pressure: 1020.1 mb]
Winds:from the E (80 degrees) at 9 MPH (8 knots; 4.1 m/s)
Visibility:10 or more sm (16+ km)
Ceiling:9000 feet AGL
Clouds: few clouds at 2700 feet AGL, overcast cloud deck at 9000 feet AGL

TAF for:KLAN (Lansing/Capital City, MI, US) issued at 0000 UTC 17 Dec 2017
Text:KLAN 170000Z 1700/1724 08008KT P6SM FEW027 OVC090
Forecast period:0000 to 0300 UTC 17 December 2017
Forecast type:FROM: standard forecast or significant change
Winds:from the E (80 degrees) at 9 MPH (8 knots; 4.1 m/s)
Visibility:6 or more sm (10+ km)
Ceiling:9000 feet AGL
Clouds: few clouds at 2700 feet AGL, overcast cloud deck at 9000 feet AGL
Text:FM170300 08008KT P6SM OVC015
Forecast period:0300 to 0500 UTC 17 December 2017
Forecast type:FROM: standard forecast or significant change
Winds:from the E (80 degrees) at 9 MPH (8 knots; 4.1 m/s)
Visibility:6 or more sm (10+ km)
Ceiling:1500 feet AGL
Clouds: overcast cloud deck at 1500 feet AGL
Text:FM170500 08008KT P6SM BKN020
Forecast period:0500 to 0600 UTC 17 December 2017
Forecast type:FROM: standard forecast or significant change
Winds:from the E (80 degrees) at 9 MPH (8 knots; 4.1 m/s)
Visibility:6 or more sm (10+ km)
Ceiling:2000 feet AGL
Clouds: broken clouds at 2000 feet AGL
Text:FM170600 08008KT P6SM BKN015
Forecast period:0600 to 1100 UTC 17 December 2017
Forecast type:FROM: standard forecast or significant change
Winds:from the E (80 degrees) at 9 MPH (8 knots; 4.1 m/s)
Visibility:6 or more sm (10+ km)
Ceiling:1500 feet AGL
Clouds: broken clouds at 1500 feet AGL
Text:FM171100 09008KT P6SM OVC008
Forecast period:1100 UTC 17 December 2017 to 0000 UTC 18 December 2017
Forecast type:FROM: standard forecast or significant change
Winds:from the E (90 degrees) at 9 MPH (8 knots; 4.1 m/s)
Visibility:6 or more sm (10+ km)
Ceiling:800 feet AGL
Clouds: overcast cloud deck at 800 feet AGL